Time;durP1;ratioP1;P1;durP2;ratioP2;P2;SDS_P1;SDS_P2;PMS_P1;PMS_P2;Temp;Humidity;BMP_temperature;BMP_pressure;BME280_temperature;BME280_humidity;BME280_pressure;Samples;Min_cycle;Max_cycle;Signal;HPM_P1;HPM_P2
2022/07/29 00:00:11;;;;;;;5.85;1.80;;;;;;;16.86;60.05;101641.09;4985819;28;20076;-76
2022/07/29 00:02:36;;;;;;;6.13;1.73;;;;;;;16.87;60.14;101642.72;4975942;28;20121;-78
2022/07/29 00:05:03;;;;;;;3.40;1.65;;;;;;;16.98;60.37;101639.91;4985034;28;20034;-76
2022/07/29 00:07:28;;;;;;;5.28;1.70;;;;;;;16.89;60.18;101635.53;4986006;28;20042;-77
2022/07/29 00:09:54;;;;;;;4.15;1.77;;;;;;;16.94;59.99;101638.53;4986044;28;20027;-77
2022/07/29 00:12:21;;;;;;;5.03;1.70;;;;;;;16.90;60.16;101634.56;4985715;28;20812;-77
2022/07/29 00:14:46;;;;;;;4.07;1.70;;;;;;;16.93;60.21;101625.59;4985756;28;20097;-77
2022/07/29 00:17:12;;;;;;;4.20;1.67;;;;;;;16.96;60.38;101620.88;4986000;28;20026;-78
2022/07/29 00:19:37;;;;;;;4.13;1.58;;;;;;;16.94;60.24;101617.59;4991741;28;20030;-76
2022/07/29 00:22:02;;;;;;;4.20;1.92;;;;;;;16.82;60.29;101613.53;4989186;28;20022;-78
2022/07/29 00:24:28;;;;;;;5.22;1.60;;;;;;;16.91;60.90;101627.53;4988419;28;20029;-77
2022/07/29 00:26:53;;;;;;;4.38;1.73;;;;;;;16.83;60.75;101619.59;4988663;28;20068;-77
2022/07/29 00:29:19;;;;;;;4.00;1.60;;;;;;;16.91;60.47;101615.25;4986743;28;20133;-78
2022/07/29 00:31:45;;;;;;;4.68;1.70;;;;;;;16.85;61.18;101612.38;4993008;28;20435;-78
2022/07/29 00:35:43;;;;;;;3.50;1.67;;;;;;;16.91;60.63;101612.63;4988939;28;20061;-77
2022/07/29 00:36:56;;;;;;;4.55;1.67;;;;;;;16.83;61.22;101607.31;4985981;28;20084;-77
2022/07/29 00:39:21;;;;;;;5.70;1.80;;;;;;;16.81;61.11;101605.81;4988465;28;20443;-77
2022/07/29 00:41:47;;;;;;;4.35;1.52;;;;;;;16.86;60.91;101598.31;4988887;28;20039;-76
2022/07/29 00:44:12;;;;;;;6.88;1.52;;;;;;;16.84;61.57;101601.09;4999429;28;20068;-77
2022/07/29 00:46:37;;;;;;;3.28;1.60;;;;;;;16.76;61.60;101602.81;4989068;28;20033;-77
2022/07/29 00:49:03;;;;;;;4.47;1.90;;;;;;;16.81;60.65;101605.81;4981507;28;20116;-78
2022/07/29 00:51:29;;;;;;;5.63;2.00;;;;;;;16.76;61.43;101611.47;4988251;28;20033;-77
2022/07/29 00:53:54;;;;;;;5.90;1.70;;;;;;;16.75;61.80;101601.97;4988459;28;20517;-78
2022/07/29 00:56:20;;;;;;;5.32;1.80;;;;;;;16.74;61.10;101605.53;4988742;28;20040;-79
2022/07/29 00:58:47;;;;;;;4.57;1.70;;;;;;;16.76;61.59;101606.25;4989232;28;20529;-77
2022/07/29 01:01:13;;;;;;;4.93;1.60;;;;;;;16.75;61.67;101594.13;4999341;28;20026;-78
2022/07/29 01:03:38;;;;;;;4.05;1.80;;;;;;;16.79;61.60;101582.34;4987760;28;20273;-77
2022/07/29 01:06:05;;;;;;;4.07;1.70;;;;;;;16.63;61.58;101593.47;4995686;28;20230;-78
2022/07/29 01:08:32;;;;;;;3.45;1.58;;;;;;;16.66;61.35;101587.09;5002723;28;20057;-77
2022/07/29 01:10:59;;;;;;;5.43;1.95;;;;;;;16.78;61.12;101596.44;4988626;28;20072;-77
2022/07/29 01:13:25;;;;;;;4.25;1.92;;;;;;;16.77;61.90;101594.78;4986114;28;20023;-78
2022/07/29 01:15:57;;;;;;;4.38;2.05;;;;;;;16.74;61.67;101602.94;4988662;28;20033;-78
2022/07/29 01:18:33;;;;;;;4.90;1.60;;;;;;;16.79;61.94;101603.31;4985155;28;20038;-78
2022/07/29 01:21:33;;;;;;;6.10;2.00;;;;;;;16.88;61.13;101596.38;4988801;28;20039;-78
2022/07/29 01:24:29;;;;;;;4.90;2.00;;;;;;;16.85;61.38;101602.72;4982278;28;20104;-77
2022/07/29 01:27:02;;;;;;;6.72;2.10;;;;;;;16.74;62.21;101597.69;4985365;28;20054;-77
2022/07/29 01:29:38;;;;;;;5.05;2.03;;;;;;;16.73;61.98;101593.44;4987826;28;20097;-76
2022/07/29 01:32:10;;;;;;;4.18;1.83;;;;;;;16.77;61.90;101614.94;4988322;28;20037;-77
2022/07/29 01:34:55;;;;;;;5.65;2.10;;;;;;;16.77;61.96;101626.22;4981699;28;20030;-77
2022/07/29 01:37:31;;;;;;;3.63;1.80;;;;;;;16.65;63.75;101628.19;4987736;28;20037;-78
2022/07/29 01:39:58;;;;;;;5.32;1.80;;;;;;;16.73;62.68;101635.34;4987254;28;20027;-78
2022/07/29 01:42:31;;;;;;;5.75;1.92;;;;;;;16.71;62.95;101626.81;4987635;28;20113;-76
2022/07/29 01:45:06;;;;;;;5.07;1.83;;;;;;;16.66;62.11;101631.63;4988668;28;20843;-78
2022/07/29 01:47:43;;;;;;;3.92;1.80;;;;;;;16.56;62.32;101633.47;4986580;28;20077;-78
2022/07/29 01:50:12;;;;;;;4.18;1.75;;;;;;;16.46;62.89;101623.03;4987943;28;20042;-77
2022/07/29 01:52:52;;;;;;;6.32;1.98;;;;;;;16.58;62.11;101637.59;4992398;28;20038;-77
2022/07/29 01:55:22;;;;;;;6.03;1.85;;;;;;;16.49;62.70;101616.69;4987446;28;20389;-78
2022/07/29 01:57:49;;;;;;;5.15;1.88;;;;;;;16.56;62.47;101612.50;4986674;28;20030;-77
2022/07/29 02:00:15;;;;;;;4.38;2.05;;;;;;;16.49;63.32;101606.22;4986568;28;20491;-78
2022/07/29 02:02:44;;;;;;;3.30;1.80;;;;;;;16.45;63.20;101596.00;4979201;28;20060;-78
2022/07/29 02:05:12;;;;;;;5.55;1.98;;;;;;;16.41;63.65;101605.13;4988381;28;20030;-76
2022/07/29 02:07:40;;;;;;;7.03;2.20;;;;;;;16.53;62.91;101597.91;4985671;28;20054;-77
2022/07/29 02:10:08;;;;;;;4.32;2.00;;;;;;;16.38;63.95;101587.09;4985916;28;20084;-77
2022/07/29 02:12:35;;;;;;;3.70;1.90;;;;;;;16.44;63.83;101583.06;4987375;28;20463;-78
2022/07/29 02:15:02;;;;;;;5.72;2.05;;;;;;;16.39;63.86;101580.88;4987669;28;20063;-77
2022/07/29 02:17:33;;;;;;;5.65;2.08;;;;;;;16.43;64.25;101582.25;4981723;28;20363;-78
2022/07/29 02:20:01;;;;;;;8.15;2.10;;;;;;;16.44;64.76;101588.31;4987512;28;20161;-78
2022/07/29 02:22:30;;;;;;;4.57;1.95;;;;;;;16.31;64.88;101578.16;4986435;28;20058;-78
2022/07/29 02:24:55;;;;;;;3.75;2.00;;;;;;;16.37;66.01;101574.16;4985780;28;20458;-78
2022/07/29 02:27:23;;;;;;;5.88;2.30;;;;;;;16.17;66.59;101569.00;4978280;28;20066;-78
2022/07/29 02:29:50;;;;;;;4.70;2.33;;;;;;;16.17;67.92;101573.38;4993176;28;20391;-78
2022/07/29 02:32:17;;;;;;;4.15;2.22;;;;;;;16.17;67.38;101565.53;4982649;28;20052;-79
2022/07/29 02:34:44;;;;;;;5.50;2.30;;;;;;;16.14;68.08;101560.59;4986381;28;20091;-78
2022/07/29 02:37:11;;;;;;;6.53;2.22;;;;;;;16.10;68.72;101554.00;4989606;28;20474;-78
2022/07/29 02:39:38;;;;;;;4.97;2.25;;;;;;;16.22;67.98;101560.69;4988680;28;20034;-77
2022/07/29 02:42:07;;;;;;;5.13;2.37;;;;;;;16.12;69.22;101558.13;4998408;28;20290;-77
2022/07/29 02:44:34;;;;;;;5.78;2.33;;;;;;;16.06;69.83;101556.09;4985696;28;20058;-78
2022/07/29 02:47:24;;;;;;;5.35;2.40;;;;;;;16.16;68.59;101549.00;4985884;28;20066;-78
2022/07/29 02:50:08;;;;;;;5.18;2.72;;;;;;;16.20;68.44;101544.31;4984170;28;20414;-77
2022/07/29 02:52:59;;;;;;;5.72;2.78;;;;;;;16.14;69.26;101542.28;4988786;28;20037;-78
2022/07/29 02:55:36;;;;;;;6.38;2.60;;;;;;;16.04;69.41;101538.88;4981484;28;20466;-78
2022/07/29 02:58:28;;;;;;;6.60;3.03;;;;;;;16.08;69.56;101545.47;4992236;28;20034;-78
2022/07/29 03:00:56;;;;;;;5.40;2.58;;;;;;;15.82;70.85;101532.19;4979705;28;20030;-78
2022/07/29 03:03:26;;;;;;;6.30;2.40;;;;;;;15.89;70.80;101535.91;4981030;28;20030;-78
2022/07/29 03:05:56;;;;;;;8.48;2.88;;;;;;;15.81;70.44;101523.53;4981583;28;20493;-78
2022/07/29 03:08:22;;;;;;;5.38;2.92;;;;;;;15.85;70.50;101535.34;4986366;28;20065;-78
2022/07/29 03:10:48;;;;;;;5.70;2.70;;;;;;;15.84;71.52;101515.41;4984633;28;20101;-78
2022/07/29 03:13:15;;;;;;;7.35;2.90;;;;;;;15.80;71.05;101514.03;4985649;28;20478;-78
2022/07/29 03:15:43;;;;;;;5.95;2.60;;;;;;;15.75;71.56;101523.25;4986193;28;20065;-78
2022/07/29 03:18:09;;;;;;;6.25;3.00;;;;;;;15.76;71.87;101515.28;4985050;28;20026;-76
2022/07/29 03:20:35;;;;;;;5.95;2.78;;;;;;;15.74;71.26;101527.69;4986532;28;20475;-78
2022/07/29 03:23:00;;;;;;;5.57;3.25;;;;;;;15.72;70.92;101513.94;4986325;28;20030;-78
2022/07/29 03:25:27;;;;;;;6.13;2.90;;;;;;;15.75;70.72;101518.84;4987042;28;20530;-78
2022/07/29 03:27:52;;;;;;;5.53;2.88;;;;;;;15.57;72.35;101525.75;4985506;28;20054;-76
2022/07/29 03:30:17;;;;;;;5.45;3.17;;;;;;;15.49;72.07;101533.47;4984263;28;20031;-77
2022/07/29 03:32:44;;;;;;;5.20;2.90;;;;;;;15.45;71.95;101532.09;4983340;28;20236;-78
2022/07/29 03:35:09;;;;;;;6.50;2.97;;;;;;;15.43;72.30;101526.19;4986408;28;20036;-78
2022/07/29 03:37:36;;;;;;;5.90;2.90;;;;;;;15.39;72.83;101513.41;4989068;28;20019;-77
2022/07/29 03:40:04;;;;;;;6.68;3.00;;;;;;;15.51;71.99;101515.84;4986301;28;20479;-78
2022/07/29 03:42:33;;;;;;;;;;;;;;;15.74;69.69;101511.97;4985593;28;20365;-78
2022/07/29 03:45:05;;;;;;;7.97;2.90;;;;;;;15.41;72.09;101503.63;4975838;28;19920;-79
2022/07/29 03:47:32;;;;;;;4.78;2.88;;;;;;;15.48;72.29;101495.22;4982042;28;20030;-78
2022/07/29 03:50:06;;;;;;;4.90;2.77;;;;;;;15.44;71.54;101509.56;4986912;28;20065;-78
2022/07/29 03:52:32;;;;;;;5.47;3.00;;;;;;;15.36;71.77;101508.44;4988206;28;20360;-79
2022/07/29 03:54:57;;;;;;;5.10;2.97;;;;;;;15.34;71.94;101517.38;4985438;28;20528;-76
2022/07/29 03:57:27;;;;;;;6.30;3.13;;;;;;;15.43;71.44;101518.38;4988595;28;20050;-78
2022/07/29 03:59:53;;;;;;;5.90;2.90;;;;;;;15.43;72.21;101515.75;4988599;28;20069;-78
2022/07/29 04:02:19;;;;;;;5.38;3.10;;;;;;;15.43;70.95;101518.38;4991446;28;20044;-78
2022/07/29 04:04:45;;;;;;;6.22;3.20;;;;;;;15.47;70.85;101524.94;4989022;28;20102;-77
2022/07/29 04:07:12;;;;;;;5.80;3.03;;;;;;;15.48;70.45;101537.03;4987463;28;20059;-78
2022/07/29 04:09:38;;;;;;;5.18;2.88;;;;;;;15.46;70.75;101544.22;4992418;28;20018;-77
2022/07/29 04:12:03;;;;;;;5.75;3.22;;;;;;;15.29;71.52;101536.09;4988856;28;20081;-78
2022/07/29 04:14:30;;;;;;;5.70;3.13;;;;;;;15.39;70.84;101539.53;4986623;28;20026;-76
2022/07/29 04:16:56;;;;;;;6.82;3.50;;;;;;;15.34;69.93;101536.50;4981156;28;20031;-78
2022/07/29 04:19:22;;;;;;;6.10;3.33;;;;;;;15.38;70.46;101542.28;4987290;28;20498;-78
2022/07/29 04:21:47;;;;;;;7.03;3.70;;;;;;;15.11;71.33;101548.22;4990291;28;20076;-78
2022/07/29 04:24:13;;;;;;;6.38;3.83;;;;;;;15.21;71.50;101546.44;4996878;28;20030;-78
2022/07/29 04:26:38;;;;;;;6.13;3.67;;;;;;;15.15;71.45;101546.97;4987891;28;20146;-76
2022/07/29 04:29:04;;;;;;;4.70;3.40;;;;;;;15.15;71.00;101544.38;4988582;28;20038;-78
2022/07/29 04:31:29;;;;;;;7.53;3.65;;;;;;;15.26;71.27;101546.03;4985540;28;20704;-78
2022/07/29 04:33:54;;;;;;;5.35;3.30;;;;;;;15.12;71.34;101550.69;4987033;28;20029;-77
2022/07/29 04:36:20;;;;;;;5.85;3.60;;;;;;;15.21;71.44;101549.03;4988485;28;20030;-77
2022/07/29 04:38:45;;;;;;;5.90;3.50;;;;;;;15.20;71.60;101550.00;4993281;28;20500;-78
2022/07/29 04:41:10;;;;;;;6.90;3.67;;;;;;;15.15;71.88;101546.97;4991967;28;20069;-77
2022/07/29 04:43:36;;;;;;;6.07;3.42;;;;;;;15.11;72.23;101550.81;4986683;28;20038;-77
2022/07/29 04:46:03;;;;;;;6.93;3.75;;;;;;;15.13;71.80;101554.09;4988366;28;20034;-78
2022/07/29 04:48:28;;;;;;;6.07;3.58;;;;;;;15.16;72.08;101559.06;4989625;28;20042;-78
2022/07/29 04:50:54;;;;;;;6.85;3.90;;;;;;;15.06;72.21;101558.25;4989100;28;20065;-78
2022/07/29 04:53:19;;;;;;;4.72;3.55;;;;;;;15.18;72.42;101558.94;4988973;28;20056;-77
2022/07/29 04:55:45;;;;;;;6.60;3.60;;;;;;;15.21;72.42;101556.88;4996170;28;20026;-78
2022/07/29 04:58:11;;;;;;;5.63;3.50;;;;;;;15.22;72.43;101548.06;4986476;28;20478;-79
2022/07/29 05:00:36;;;;;;;7.68;4.10;;;;;;;15.12;72.77;101552.47;4986962;28;20022;-77
2022/07/29 05:03:03;;;;;;;5.88;3.90;;;;;;;15.08;72.57;101556.31;4985960;28;20667;-77
2022/07/29 05:05:28;;;;;;;6.50;3.63;;;;;;;15.04;72.53;101549.72;4985742;28;20048;-78
2022/07/29 05:07:54;;;;;;;7.72;3.75;;;;;;;15.00;73.05;101543.09;4986783;28;20026;-78
2022/07/29 05:10:19;;;;;;;6.07;3.70;;;;;;;15.10;72.88;101549.19;4989192;28;20022;-77
2022/07/29 05:12:45;;;;;;;5.97;3.58;;;;;;;15.00;73.58;101548.34;4984812;28;20022;-77
2022/07/29 05:15:10;;;;;;;6.32;3.85;;;;;;;15.05;73.37;101552.19;4987046;28;20374;-78
2022/07/29 05:17:35;;;;;;;7.40;3.60;;;;;;;15.14;72.78;101561.84;4985653;28;20482;-78
2022/07/29 05:20:01;;;;;;;6.32;3.65;;;;;;;15.00;73.41;101564.84;4987820;28;20073;-78
2022/07/29 05:22:26;;;;;;;7.22;3.80;;;;;;;15.09;72.62;101565.81;4987977;28;20494;-76
2022/07/29 05:24:51;;;;;;;6.20;3.88;;;;;;;15.01;72.89;101565.66;4989455;28;20096;-78
2022/07/29 05:27:17;;;;;;;5.95;3.78;;;;;;;15.05;73.75;101572.25;4972827;28;20047;-78
2022/07/29 05:29:42;;;;;;;6.75;3.88;;;;;;;15.10;73.40;101581.34;4991777;28;20153;-77
2022/07/29 05:32:08;;;;;;;7.28;3.90;;;;;;;15.07;73.20;101586.84;4987344;28;20089;-77
2022/07/29 05:34:33;;;;;;;7.15;3.85;;;;;;;15.06;73.00;101589.59;4985721;28;20026;-78
2022/07/29 05:36:59;;;;;;;5.68;3.78;;;;;;;15.11;72.62;101585.59;4987978;28;20036;-78
2022/07/29 05:39:24;;;;;;;5.97;3.67;;;;;;;15.11;73.94;101590.00;4988243;28;20370;-77
2022/07/29 05:41:50;;;;;;;6.63;3.88;;;;;;;15.18;73.15;101598.94;4986870;28;20057;-77
2022/07/29 05:44:15;;;;;;;6.90;3.95;;;;;;;15.12;72.91;101594.28;4984441;28;20105;-77
2022/07/29 05:46:41;;;;;;;5.85;4.13;;;;;;;15.04;73.52;101601.97;4989853;28;20061;-78
2022/07/29 05:49:07;;;;;;;5.78;4.10;;;;;;;15.09;73.58;101600.59;4987560;28;20026;-78
2022/07/29 05:51:35;;;;;;;8.27;4.57;;;;;;;15.15;72.82;101601.84;4992280;28;20550;-77
2022/07/29 05:54:01;;;;;;;;;;;;;;;15.43;71.80;101599.41;4989481;28;20030;-78
2022/07/29 05:56:26;;;;;;;5.53;3.83;;;;;;;15.19;71.70;101600.59;4986178;28;20442;-77
2022/07/29 05:58:52;;;;;;;6.90;4.20;;;;;;;15.29;71.58;101595.38;4985251;28;20030;-77
2022/07/29 06:01:17;;;;;;;6.90;4.15;;;;;;;15.24;72.71;101598.41;4986954;28;20022;-78
2022/07/29 06:03:43;;;;;;;6.22;4.20;;;;;;;15.34;71.42;101599.25;4986356;28;20451;-78
2022/07/29 06:06:08;;;;;;;8.32;3.95;;;;;;;15.31;71.88;101602.16;4987820;28;20450;-78
2022/07/29 06:08:36;;;;;;;6.25;4.53;;;;;;;15.35;72.14;101595.66;4988899;28;20038;-78
2022/07/29 06:11:01;;;;;;;6.78;4.47;;;;;;;15.44;72.08;101601.88;4986360;28;20027;-78
2022/07/29 06:13:27;;;;;;;7.07;4.60;;;;;;;15.35;72.36;101606.13;4980050;28;20547;-78
2022/07/29 06:15:52;;;;;;;6.50;4.53;;;;;;;15.44;72.26;101604.47;4988339;28;20037;-77
2022/07/29 06:18:18;;;;;;;8.38;4.60;;;;;;;15.47;73.30;101598.13;4987220;28;20360;-76
2022/07/29 06:20:43;;;;;;;7.50;4.15;;;;;;;15.60;71.92;101609.97;4983793;28;20086;-78
2022/07/29 06:23:09;;;;;;;8.13;4.55;;;;;;;15.62;71.96;101612.44;4987006;28;20110;-77
2022/07/29 06:25:36;;;;;;;6.63;4.22;;;;;;;15.63;72.01;101598.44;4983892;28;20438;-77
2022/07/29 06:28:02;;;;;;;7.35;4.30;;;;;;;15.65;71.81;101601.72;4997061;28;20499;-78
2022/07/29 06:30:28;;;;;;;6.53;4.20;;;;;;;15.67;71.49;101599.81;4987493;28;20026;-77
2022/07/29 06:32:54;;;;;;;7.78;4.32;;;;;;;15.74;71.78;101610.53;4985596;28;20438;-78
2022/07/29 06:35:19;;;;;;;6.00;4.05;;;;;;;15.79;71.15;101603.94;4986144;28;20471;-76
2022/07/29 06:37:45;;;;;;;6.97;3.90;;;;;;;15.80;71.68;101610.81;4985959;28;20459;-78
2022/07/29 06:42:54;;;;;;;7.80;4.22;;;;;;;15.74;70.72;101610.53;4984631;28;20052;-77
2022/07/29 06:45:20;;;;;;;6.95;4.30;;;;;;;15.84;69.95;101617.41;4986371;28;20455;-78
2022/07/29 06:47:45;;;;;;;6.97;4.38;;;;;;;15.78;70.85;101602.28;4986487;28;20030;-77
2022/07/29 06:50:12;;;;;;;7.95;4.45;;;;;;;15.91;70.43;101605.41;4986889;28;20026;-78
2022/07/29 06:52:38;;;;;;;6.13;4.60;;;;;;;16.03;70.16;101610.50;4985043;28;20034;-76
2022/07/29 06:55:04;;;;;;;6.55;4.57;;;;;;;15.96;70.09;101598.94;4985211;28;20041;-78
2022/07/29 06:57:30;;;;;;;7.15;4.65;;;;;;;16.03;70.72;101605.25;4985750;28;20033;-77
2022/07/29 06:59:58;;;;;;;6.78;4.35;;;;;;;16.12;71.02;101599.19;4987395;28;20034;-78
2022/07/29 07:02:23;;;;;;;7.50;4.80;;;;;;;16.12;70.38;101588.72;4987713;28;20066;-78
2022/07/29 07:04:48;;;;;;;5.57;4.28;;;;;;;16.18;68.64;101590.75;4984938;28;20022;-78
2022/07/29 07:07:14;;;;;;;6.65;4.30;;;;;;;16.29;69.79;101595.81;4980590;28;20092;-78
2022/07/29 07:09:40;;;;;;;7.78;4.50;;;;;;;16.06;69.37;101590.13;5001877;28;20456;-77
2022/07/29 07:12:05;;;;;;;6.03;4.22;;;;;;;16.18;70.06;101601.22;4985590;28;20072;-77
2022/07/29 07:14:31;;;;;;;8.25;4.70;;;;;;;16.18;69.78;101598.63;4984889;28;20026;-78
2022/07/29 07:16:56;;;;;;;6.22;4.25;;;;;;;16.31;70.01;101609.59;4985332;28;20551;-76
2022/07/29 07:19:22;;;;;;;7.05;4.38;;;;;;;16.21;70.30;101600.94;4981420;28;20027;-78
2022/07/29 07:21:47;;;;;;;7.70;4.22;;;;;;;16.29;70.00;101592.38;4982929;28;20033;-78
2022/07/29 07:24:12;;;;;;;7.97;4.30;;;;;;;16.46;69.45;101613.38;4983520;28;20030;-76
2022/07/29 07:26:39;;;;;;;7.93;4.47;;;;;;;16.29;69.87;101608.09;4987038;28;20046;-77
2022/07/29 07:29:05;;;;;;;6.75;3.88;;;;;;;16.26;69.50;101611.81;4987528;28;20037;-78
2022/07/29 07:31:31;;;;;;;5.90;4.07;;;;;;;16.46;71.08;101618.63;4986018;28;20023;-78
2022/07/29 07:33:57;;;;;;;7.93;4.03;;;;;;;16.42;69.95;101613.81;4998911;28;20042;-77
2022/07/29 07:36:23;;;;;;;7.60;4.10;;;;;;;16.52;69.40;101616.41;4988263;28;20022;-78
2022/07/29 07:38:48;;;;;;;5.80;3.92;;;;;;;16.56;69.68;101617.75;4991167;28;20073;-77
2022/07/29 07:41:14;;;;;;;7.65;4.50;;;;;;;16.59;70.10;101607.81;4989264;28;20022;-78
2022/07/29 07:43:39;;;;;;;6.43;4.18;;;;;;;16.65;69.40;101601.16;4999873;28;20474;-77
2022/07/29 07:46:05;;;;;;;8.90;4.50;;;;;;;16.55;69.72;101595.16;4989795;28;20713;-77
2022/07/29 07:48:30;;;;;;;8.20;4.60;;;;;;;16.56;71.36;101594.19;4989827;28;20037;-78
2022/07/29 07:50:56;;;;;;;7.35;4.57;;;;;;;16.60;70.28;101604.22;4986941;28;20049;-77
2022/07/29 07:53:21;;;;;;;9.75;5.78;;;;;;;16.63;70.45;101603.09;4982772;28;20069;-78
2022/07/29 07:55:47;;;;;;;9.20;4.57;;;;;;;16.71;69.85;101608.47;4977599;28;20414;-77
2022/07/29 07:58:12;;;;;;;8.02;4.65;;;;;;;16.80;69.52;101610.19;4998076;28;20096;-78
2022/07/29 08:00:38;;;;;;;7.28;4.53;;;;;;;16.72;69.52;101602.25;4987550;28;20057;-77
2022/07/29 08:03:03;;;;;;;7.72;4.82;;;;;;;16.70;69.58;101604.19;4989537;28;20127;-77
2022/07/29 08:05:29;;;;;;;7.97;4.53;;;;;;;16.84;68.67;101597.66;4992042;28;20371;-77
2022/07/29 08:07:54;;;;;;;8.07;5.40;;;;;;;16.69;68.94;101589.44;4984836;28;20080;-77
2022/07/29 08:13:06;;;;;;;9.63;7.03;;;;;;;16.83;69.10;101596.81;4996428;28;20395;-77
2022/07/29 08:15:32;;;;;;;10.00;7.10;;;;;;;16.89;68.83;101592.78;4994929;28;20438;-77
2022/07/29 08:17:57;;;;;;;10.23;6.88;;;;;;;16.89;69.52;101609.34;4998218;28;20430;-78
2022/07/29 08:20:22;;;;;;;10.35;6.63;;;;;;;16.89;69.84;101601.47;4981684;28;20412;-77
2022/07/29 08:22:48;;;;;;;8.80;6.30;;;;;;;16.84;69.58;101601.09;4989046;28;20113;-78
2022/07/29 08:25:13;;;;;;;8.57;5.53;;;;;;;17.05;70.07;101608.69;4989573;28;20754;-77
2022/07/29 08:27:39;;;;;;;7.30;5.18;;;;;;;17.12;69.37;101606.28;4989145;28;20561;-77
2022/07/29 08:30:05;;;;;;;7.60;5.15;;;;;;;17.15;69.38;101611.25;4984526;28;20406;-78
2022/07/29 08:32:31;;;;;;;10.00;5.10;;;;;;;17.25;68.66;101598.88;4988819;28;20030;-78
2022/07/29 08:34:56;;;;;;;6.90;4.63;;;;;;;17.34;68.59;101623.38;4997199;28;20488;-77
2022/07/29 08:37:22;;;;;;;8.15;4.60;;;;;;;17.33;68.29;101625.19;4991538;28;20027;-79
2022/07/29 08:39:47;;;;;;;7.68;4.35;;;;;;;17.53;67.73;101624.03;4986576;28;20116;-78
2022/07/29 08:42:13;;;;;;;8.60;4.93;;;;;;;17.68;67.75;101631.38;4988743;28;20030;-77
2022/07/29 08:44:38;;;;;;;9.77;5.20;;;;;;;17.71;67.38;101625.81;4984024;28;20026;-78
2022/07/29 08:47:04;;;;;;;7.78;5.00;;;;;;;17.63;67.75;101628.41;4979178;28;20360;-78
2022/07/29 08:49:30;;;;;;;9.18;5.65;;;;;;;17.62;66.58;101626.75;4984864;28;20034;-78
2022/07/29 08:51:58;;;;;;;6.75;4.90;;;;;;;17.79;65.96;101633.81;4989075;28;20387;-78
2022/07/29 08:54:23;;;;;;;6.63;4.85;;;;;;;17.83;66.45;101613.31;4988210;28;20058;-78
2022/07/29 08:56:50;;;;;;;7.63;5.10;;;;;;;17.87;66.79;101625.97;4986978;28;20478;-78
2022/07/29 08:59:18;;;;;;;8.50;5.00;;;;;;;18.04;65.14;101627.75;4986901;28;20133;-77
2022/07/29 09:01:46;;;;;;;8.02;5.25;;;;;;;18.05;64.48;101624.13;4987709;28;20018;-78
2022/07/29 09:04:12;;;;;;;7.47;5.03;;;;;;;18.16;65.54;101609.91;4988330;28;20049;-78
2022/07/29 09:06:43;;;;;;;7.97;5.32;;;;;;;18.07;64.79;101620.56;4997158;28;20441;-78
2022/07/29 09:09:09;;;;;;;7.63;5.32;;;;;;;18.17;64.57;101616.00;4999174;28;20033;-78
2022/07/29 09:11:34;;;;;;;8.27;5.57;;;;;;;18.24;64.57;101617.03;4988451;28;20030;-78
2022/07/29 09:14:00;;;;;;;11.18;7.55;;;;;;;18.24;64.42;101624.91;4983677;28;20058;-80
2022/07/29 09:16:26;;;;;;;10.40;7.10;;;;;;;18.33;64.14;101610.84;4981996;28;20569;-79
2022/07/29 09:18:51;;;;;;;9.07;6.82;;;;;;;18.39;63.39;101610.19;4989635;28;20030;-79
2022/07/29 09:24:12;;;;;;;11.52;6.80;;;;;;;18.74;64.55;101613.66;4988693;28;20041;-78
2022/07/29 09:26:40;;;;;;;9.70;6.72;;;;;;;18.89;63.73;101612.06;4982460;28;20038;-79
2022/07/29 09:29:14;;;;;;;10.93;5.95;;;;;;;19.14;63.40;101614.75;4980747;28;20057;-78
2022/07/29 09:31:46;;;;;;;5.93;4.65;;;;;;;19.33;62.43;101609.19;4987565;28;20029;-78
2022/07/29 09:34:15;;;;;;;9.38;5.10;;;;;;;19.48;62.51;101602.28;4986975;28;20391;-77
2022/07/29 09:36:45;;;;;;;9.50;5.40;;;;;;;19.55;61.86;101613.78;4988091;28;20422;-79
2022/07/29 09:39:12;;;;;;;8.60;4.88;;;;;;;19.68;61.54;101613.34;4985760;28;20056;-79
2022/07/29 09:41:52;;;;;;;7.28;4.60;;;;;;;19.81;62.60;101607.56;4986619;28;20109;-79
2022/07/29 09:44:18;;;;;;;7.95;4.07;;;;;;;19.91;59.48;101608.22;4980218;28;20049;-79
2022/07/29 09:47:05;;;;;;;7.28;4.50;;;;;;;20.06;60.82;101617.06;4987435;28;20066;-79
2022/07/29 09:49:32;;;;;;;8.23;4.20;;;;;;;20.33;61.15;101612.38;4986227;28;20023;-79
2022/07/29 09:52:10;;;;;;;10.07;4.53;;;;;;;20.39;60.03;101617.78;4976752;28;20033;-78
2022/07/29 09:54:36;;;;;;;;;;;;;;;20.58;60.80;101616.59;4983400;28;20026;-77
2022/07/29 09:57:12;;;;;;;7.45;4.10;;;;;;;20.58;57.58;101603.41;4985918;28;19920;-78
2022/07/29 09:59:38;;;;;;;8.75;4.07;;;;;;;20.74;57.15;101614.88;4985035;28;20065;-79
2022/07/29 10:02:14;;;;;;;7.20;3.22;;;;;;;20.93;58.46;101617.06;4979869;28;20034;-78
2022/07/29 10:04:42;;;;;;;8.07;3.33;;;;;;;21.00;56.83;101612.75;4984431;28;20118;-79
2022/07/29 10:07:08;;;;;;;7.28;2.80;;;;;;;21.25;56.09;101617.88;4986824;28;20097;-79
2022/07/29 10:09:35;;;;;;;5.65;3.13;;;;;;;21.13;54.07;101610.34;4984709;28;20026;-79
2022/07/29 10:12:09;;;;;;;8.65;3.17;;;;;;;21.36;56.54;101622.75;4985235;28;20489;-78
2022/07/29 10:14:35;;;;;;;6.43;2.80;;;;;;;21.50;54.93;101627.25;4976925;28;20110;-78
2022/07/29 10:17:02;;;;;;;6.63;3.15;;;;;;;21.43;53.63;101623.69;4975251;28;20704;-78
2022/07/29 10:19:32;;;;;;;5.88;3.25;;;;;;;21.53;52.85;101621.63;4978409;28;20401;-79
2022/07/29 10:21:59;;;;;;;9.63;4.35;;;;;;;21.53;52.94;101621.63;4979339;28;20088;-79
2022/07/29 10:24:29;;;;;;;6.55;3.65;;;;;;;21.63;53.38;101627.50;4980728;28;20030;-79
2022/07/29 10:27:01;;;;;;;6.90;3.42;;;;;;;21.59;52.25;101626.22;4978868;28;20697;-79
2022/07/29 10:29:28;;;;;;;6.88;3.60;;;;;;;21.66;51.89;101619.22;4982709;28;20538;-79
2022/07/29 10:32:09;;;;;;;6.13;3.22;;;;;;;21.87;54.13;101615.06;4986799;28;20037;-78
2022/07/29 10:35:12;;;;;;;7.00;3.78;;;;;;;21.88;53.17;101617.53;4986082;28;20097;-78
2022/07/29 10:38:07;;;;;;;8.48;3.60;;;;;;;22.06;53.11;101611.88;4976899;28;20125;-78
2022/07/29 10:43:44;;;;;;;5.45;3.60;;;;;;;22.45;50.83;101610.81;4986245;28;20493;-78
2022/07/29 10:46:11;;;;;;;8.15;4.20;;;;;;;22.44;49.14;101609.19;4985685;28;20335;-79
2022/07/29 10:49:15;;;;;;;8.30;3.80;;;;;;;22.57;51.21;101604.06;4984029;28;20038;-80
2022/07/29 10:52:07;;;;;;;6.85;4.30;;;;;;;22.67;50.73;101609.88;4978612;28;20026;-78
2022/07/29 10:54:35;;;;;;;8.50;3.90;;;;;;;22.66;48.02;101618.81;4978954;28;20360;-79
2022/07/29 10:57:14;;;;;;;8.13;3.55;;;;;;;22.92;50.96;101612.22;4980665;28;20031;-77
2022/07/29 10:59:41;;;;;;;8.13;4.85;;;;;;;22.76;48.11;101614.03;4976452;28;20039;-79
2022/07/29 11:02:35;;;;;;;8.37;4.23;;;;;;;22.82;49.31;101612.47;4978190;28;20022;-79
2022/07/29 11:05:05;;;;;;;7.07;3.63;;;;;;;23.05;49.63;101613.19;4979583;28;20030;-79
2022/07/29 11:07:34;;;;;;;8.25;3.85;;;;;;;23.13;49.88;101609.59;4979688;28;20065;-79
2022/07/29 11:10:11;;;;;;;;;;;;;;;23.32;50.65;101614.25;4981424;28;20030;-79
2022/07/29 11:12:36;;;;;;;5.00;2.83;;;;;;;23.35;48.29;101617.53;4985067;28;19918;-79
2022/07/29 11:15:03;;;;;;;8.00;3.17;;;;;;;23.35;47.83;101614.88;4985872;28;20022;-79
2022/07/29 11:17:28;;;;;;;7.78;3.78;;;;;;;23.08;46.74;101617.28;4982865;28;20030;-78
2022/07/29 11:20:31;;;;;;;7.72;3.20;;;;;;;23.31;48.07;101612.59;4985579;28;20056;-79
2022/07/29 11:22:57;;;;;;;7.38;3.60;;;;;;;23.31;47.46;101617.91;4986813;28;20109;-79
2022/07/29 11:25:23;;;;;;;7.10;3.78;;;;;;;23.34;49.75;101611.44;4986252;28;20153;-79
2022/07/29 11:27:49;;;;;;;7.00;4.10;;;;;;;23.17;47.07;101610.84;4983713;28;20046;-78
2022/07/29 11:30:14;;;;;;;6.82;3.50;;;;;;;23.23;47.21;101604.81;4985993;28;20033;-79
2022/07/29 11:32:43;;;;;;;5.95;3.33;;;;;;;23.47;46.42;101618.66;4985846;28;20039;-79
2022/07/29 11:35:23;;;;;;;6.68;3.05;;;;;;;23.55;47.29;101613.22;4986485;28;20037;-79
2022/07/29 11:38:24;;;;;;;9.65;3.10;;;;;;;23.81;48.34;101616.09;4984396;28;20076;-79
2022/07/29 11:41:17;;;;;;;7.70;3.38;;;;;;;23.62;46.65;101618.56;4985214;28;20034;-78
2022/07/29 11:43:51;;;;;;;9.65;3.45;;;;;;;23.72;46.69;101603.19;4985332;28;20103;-78